Elmira/Corning Regional Airport

Airport
ICAO code: 
KELM
Summary
ICAO Region: 
NAM
Territory: 
Location: 
Elmira/Corning, New York,
Serving: 
Elmira/Corning, New York
Elevation: 
954 ft
Coordinates: 
Aerial View: 
42° 9' 46.083" N, 76° 53' 44.581" W
Airport WX: 
Cumulonimbus
Metar
Observation
KELM 040653Z AUTO 00000KT 10SM SCT023 OVC031 02/M04 A3005 RMK AO2 SLP184 T00171039
Station
Elmira, Elmira / Corning Regional Airport
Date/Time
2021-12-04 06:53:00
Wind direction
Wind speed
00 kts
Lowest cloud amount
scattered clouds
Temperature
1.7°C
Dew point
-3.9°C
Humidity
66%
Weather condition
n/a

Description

Elmira/Corning Regional Airport is a public-use airport located 11 km northwest of the central business district of the city of Elmira and 13 km east of the city of Corning in Chemung County, New York.

Climatology

Humid Continental climate (Köppen climate classification Dfb) - Variable weather patterns and a large seasonal temperature variance. Summers are often warm and humid with frequent thunderstorms and winters can be very cold with frequent snowfall and persistent snow cover.

Runways

Designator Length Width Surface Rops
5/23 615 46 GRS No/No
10/28 1647 46 ASP Yes/Yes
6/24 2134 46 ASP Yes/Yes
Airport map: 
Aerial View: 

SKYbrary Partners:

Safety knowledge contributed by: